Cramers, Illinois
Current Conditions -  °F | °C
As of 6:54 PM on Wednesday 22 Oct 2014 (Local Time) from KPIA Reporting Station
Clear Clear  
Wind Chill: 56°   Ceiling: Unl
Heat Index: 56°   Visibility: 10mi
Dew Point: 36°   Wind: 5mph
Humidity: 47%   Direction: 120°ESE
Pressure: 30.23"   Gusts: NA
Location:  40.7615°N, 89.9372°W
Report Text: KPIA 222354Z 12004KT 10SM CLR 13/02 A3023 RMK AO2 SLP237 T01330022 10167 20133 56010
Loading
Personal Weather Stations






























Interactive Weather Map
Tropical Storm Tracking
New forecast layout! Learn more

10-Day Weather Forecast

Advertisements
Track Severe Weather on mobile